Time;durP1;ratioP1;P1;durP2;ratioP2;P2;SDS_P1;SDS_P2;PMS_P1;PMS_P2;Temp;Humidity;BMP_temperature;BMP_pressure;BME280_temperature;BME280_humidity;BME280_pressure;Samples;Min_cycle;Max_cycle;Signal;HPM_P1;HPM_P2
2022/05/14 00:01:18;;;;;;;19.80;5.32;;;13.00;99.90;;;;;;5071402;28;20060;-58
2022/05/14 00:03:44;;;;;;;24.25;5.60;;;13.00;99.90;;;;;;5070595;28;20434;-60
2022/05/14 00:06:17;;;;;;;21.80;5.90;;;13.00;99.90;;;;;;5069735;28;20054;-59
2022/05/14 00:08:43;;;;;;;21.83;5.80;;;13.00;99.90;;;;;;5072124;28;20048;-58
2022/05/14 00:13:54;;;;;;;25.63;6.55;;;12.90;99.90;;;;;;5067241;28;20040;-63
2022/05/14 00:16:23;;;;;;;25.15;5.40;;;12.90;99.90;;;;;;5054772;28;20045;-59
2022/05/14 00:18:49;;;;;;;21.50;4.80;;;12.90;99.90;;;;;;5071115;28;20945;-59
2022/05/14 00:21:16;;;;;;;20.77;5.47;;;12.80;99.90;;;;;;5063281;28;20498;-58
2022/05/14 00:23:41;;;;;;;19.13;5.50;;;12.90;99.90;;;;;;5053230;28;20051;-57
2022/05/14 00:26:07;;;;;;;28.50;6.13;;;12.80;99.90;;;;;;5070302;28;20094;-59
2022/05/14 00:28:33;;;;;;;20.65;5.78;;;12.80;99.90;;;;;;5070384;28;20111;-60
2022/05/14 00:31:00;;;;;;;21.30;5.47;;;12.80;99.90;;;;;;5072251;28;20051;-61
2022/05/14 00:33:25;;;;;;;19.10;6.25;;;12.70;99.90;;;;;;5068688;28;20081;-57
2022/05/14 00:35:51;;;;;;;23.50;6.00;;;12.70;99.90;;;;;;5068271;28;20044;-60
2022/05/14 00:38:17;;;;;;;19.60;5.10;;;12.70;99.90;;;;;;5051785;28;20453;-57
2022/05/14 00:40:54;;;;;;;23.35;6.03;;;12.70;99.90;;;;;;5071346;28;20040;-58
2022/05/14 00:43:21;;;;;;;17.73;5.40;;;12.70;99.90;;;;;;5067848;28;20453;-58
2022/05/14 00:46:00;;;;;;;23.88;5.88;;;12.70;99.90;;;;;;5070531;28;20411;-59
2022/05/14 00:48:34;;;;;;;24.75;5.75;;;12.70;99.90;;;;;;5069656;28;20039;-58
2022/05/14 00:51:00;;;;;;;23.65;6.30;;;12.60;99.90;;;;;;5067161;28;20047;-57
2022/05/14 00:53:31;;;;;;;28.38;6.15;;;12.70;99.90;;;;;;5060576;28;20749;-58
2022/05/14 00:56:01;;;;;;;25.13;6.20;;;12.70;99.90;;;;;;5068978;28;20047;-58
2022/05/14 00:58:33;;;;;;;20.48;5.82;;;12.60;99.90;;;;;;5046342;28;20106;-58
2022/05/14 01:00:59;;;;;;;23.33;6.30;;;12.70;99.90;;;;;;5052697;28;20133;-58
2022/05/14 01:03:25;;;;;;;23.38;6.53;;;12.70;99.90;;;;;;5069734;28;20118;-60
2022/05/14 01:05:52;;;;;;;25.90;6.15;;;12.70;99.90;;;;;;5071401;28;20048;-56
2022/05/14 01:08:18;;;;;;;24.40;6.05;;;12.60;99.90;;;;;;5049820;28;20480;-60
2022/05/14 01:10:46;;;;;;;31.98;7.20;;;12.60;99.90;;;;;;5051982;28;20123;-58
2022/05/14 01:13:14;;;;;;;24.95;6.13;;;12.70;99.90;;;;;;5069629;28;20058;-58
2022/05/14 01:15:49;;;;;;;26.65;6.22;;;12.70;99.90;;;;;;5052657;28;20121;-58
2022/05/14 01:18:17;;;;;;;28.05;7.38;;;12.60;99.90;;;;;;5025862;28;20829;-58
2022/05/14 01:20:52;;;;;;;32.25;6.75;;;12.60;99.90;;;;;;5055827;28;20529;-58
2022/05/14 01:26:34;;;;;;;25.02;7.32;;;12.60;99.90;;;;;;5063429;28;20044;-57
2022/05/14 01:29:08;;;;;;;28.88;6.22;;;12.50;99.90;;;;;;5070855;28;20122;-59
2022/05/14 01:31:36;;;;;;;29.73;7.32;;;12.50;99.90;;;;;;5069362;28;20506;-60
2022/05/14 01:34:06;;;;;;;23.27;6.60;;;12.50;99.90;;;;;;5053197;28;20068;-58
2022/05/14 01:36:33;;;;;;;29.38;7.20;;;12.60;99.90;;;;;;5065843;28;20139;-58
2022/05/14 01:38:59;;;;;;;22.92;7.00;;;12.50;99.90;;;;;;5069034;28;20490;-58
2022/05/14 01:41:25;;;;;;;31.50;7.43;;;12.50;99.90;;;;;;5068940;28;20057;-58
2022/05/14 01:43:51;;;;;;;22.00;6.65;;;12.50;99.90;;;;;;5068982;28;20484;-59
2022/05/14 01:46:18;;;;;;;26.25;6.88;;;12.50;99.90;;;;;;5069111;28;20589;-59
2022/05/14 01:48:44;;;;;;;22.52;6.85;;;12.50;99.90;;;;;;5071158;28;20585;-58
2022/05/14 01:51:10;;;;;;;27.05;6.97;;;12.40;99.90;;;;;;5053488;28;20133;-58
2022/05/14 01:53:36;;;;;;;30.40;7.07;;;12.40;99.90;;;;;;5067973;28;20126;-58
2022/05/14 01:56:02;;;;;;;26.17;7.22;;;12.40;99.90;;;;;;5055198;28;20044;-58
2022/05/14 01:58:36;;;;;;;25.20;7.60;;;12.40;99.90;;;;;;5057032;28;20048;-58
2022/05/14 02:01:26;;;;;;;31.00;7.43;;;12.40;99.90;;;;;;5066144;28;20048;-60
2022/05/14 02:04:11;;;;;;;26.23;7.38;;;12.40;99.90;;;;;;5060246;28;20044;-59
2022/05/14 02:06:38;;;;;;;37.35;8.07;;;12.30;99.90;;;;;;5070829;28;20170;-58
2022/05/14 02:09:06;;;;;;;26.83;7.38;;;12.30;99.90;;;;;;5070522;28;20047;-60
2022/05/14 02:11:32;;;;;;;28.45;7.30;;;12.30;99.90;;;;;;5068834;28;20052;-59
2022/05/14 02:13:59;;;;;;;25.33;7.75;;;12.20;99.90;;;;;;5071914;28;20050;-60
2022/05/14 02:16:24;;;;;;;30.90;8.15;;;12.20;99.90;;;;;;5067947;28;20064;-59
2022/05/14 02:18:50;;;;;;;30.63;7.90;;;12.10;99.90;;;;;;5068906;28;20045;-58
2022/05/14 02:21:20;;;;;;;27.20;7.80;;;12.10;99.90;;;;;;5070548;28;20052;-58
2022/05/14 02:23:47;;;;;;;30.63;8.90;;;12.10;99.90;;;;;;5066327;28;20588;-58
2022/05/14 02:26:13;;;;;;;27.25;8.38;;;12.00;99.90;;;;;;5065096;28;20041;-60
2022/05/14 02:28:40;;;;;;;33.30;9.35;;;12.00;99.90;;;;;;5036398;28;20498;-58
2022/05/14 02:31:06;;;;;;;37.38;8.88;;;12.00;99.90;;;;;;5068650;28;20052;-58
2022/05/14 02:33:32;;;;;;;34.83;8.27;;;11.90;99.90;;;;;;5055705;28;20086;-59
2022/05/14 02:35:59;;;;;;;33.95;8.45;;;11.90;99.90;;;;;;5074069;28;20090;-59
2022/05/14 02:38:26;;;;;;;37.88;8.50;;;11.90;99.90;;;;;;5062913;28;20056;-58
2022/05/14 02:40:53;;;;;;;36.50;8.68;;;11.80;99.90;;;;;;5075234;28;20048;-58
2022/05/14 02:43:19;;;;;;;34.53;8.30;;;11.80;99.90;;;;;;5068746;28;20133;-58
2022/05/14 02:45:44;;;;;;;34.97;8.73;;;11.80;99.90;;;;;;5071766;28;20040;-58
2022/05/14 02:48:11;;;;;;;38.38;9.43;;;11.80;99.90;;;;;;5070338;28;20089;-59
2022/05/14 02:50:38;;;;;;;36.63;8.80;;;11.70;99.90;;;;;;5074055;28;20040;-58
2022/05/14 02:53:04;;;;;;;32.95;8.77;;;11.70;99.90;;;;;;5063000;28;20106;-59
2022/05/14 02:55:30;;;;;;;34.13;9.20;;;11.70;99.90;;;;;;5072370;28;20115;-59
2022/05/14 02:57:57;;;;;;;44.83;8.82;;;11.70;99.90;;;;;;5070039;28;20112;-59
2022/05/14 03:00:23;;;;;;;33.35;9.15;;;11.70;99.90;;;;;;5070168;28;20047;-59
2022/05/14 03:02:49;;;;;;;44.70;9.65;;;11.60;99.90;;;;;;5054302;28;20056;-59
2022/05/14 03:05:19;;;;;;;31.52;8.13;;;11.60;99.90;;;;;;5070728;28;20052;-59
2022/05/14 03:07:45;;;;;;;28.50;7.72;;;11.60;99.90;;;;;;5071850;28;20051;-59
2022/05/14 03:10:12;;;;;;;36.42;8.85;;;11.50;99.90;;;;;;5071921;28;20535;-58
2022/05/14 03:12:38;;;;;;;26.27;8.23;;;11.50;99.90;;;;;;5071039;28;20150;-59
2022/05/14 03:15:05;;;;;;;29.92;9.38;;;11.50;99.90;;;;;;5068447;28;20040;-58
2022/05/14 03:17:34;;;;;;;32.65;8.50;;;11.40;99.90;;;;;;5052239;28;20097;-59
2022/05/14 03:20:06;;;;;;;35.72;9.00;;;11.40;99.90;;;;;;5054814;28;20164;-58
2022/05/14 03:22:36;;;;;;;34.53;9.93;;;11.40;99.90;;;;;;5072432;28;20080;-59
2022/05/14 03:25:04;;;;;;;29.33;8.10;;;11.40;99.90;;;;;;5070798;28;20082;-59
2022/05/14 03:27:30;;;;;;;32.35;8.60;;;11.30;99.90;;;;;;5072830;28;20479;-59
2022/05/14 03:29:56;;;;;;;41.55;9.52;;;11.30;99.90;;;;;;5070589;28;20036;-59
2022/05/14 03:32:24;;;;;;;31.13;8.48;;;11.20;99.90;;;;;;5056024;28;20060;-59
2022/05/14 03:34:50;;;;;;;34.15;9.32;;;11.20;99.90;;;;;;5051020;28;20521;-59
2022/05/14 03:37:16;;;;;;;34.35;8.50;;;11.10;99.90;;;;;;5071213;28;20045;-59
2022/05/14 03:39:42;;;;;;;36.63;9.27;;;11.10;99.90;;;;;;5070123;28;20067;-59
2022/05/14 03:42:08;;;;;;;39.72;9.35;;;11.10;99.90;;;;;;5056718;28;20044;-59
2022/05/14 03:44:33;;;;;;;38.30;9.52;;;11.10;99.90;;;;;;5070878;28;20188;-60
2022/05/14 03:46:59;;;;;;;39.33;9.95;;;11.10;99.90;;;;;;5048670;28;20048;-60
2022/05/14 03:49:25;;;;;;;37.95;9.60;;;11.10;99.90;;;;;;5067718;28;20048;-59
2022/05/14 03:51:52;;;;;;;35.05;9.75;;;11.10;99.90;;;;;;5051951;28;20087;-58
2022/05/14 03:54:19;;;;;;;31.35;9.30;;;11.10;99.90;;;;;;5069471;28;20044;-59
2022/05/14 03:56:44;;;;;;;25.95;7.75;;;11.10;99.90;;;;;;5069910;28;20435;-58
2022/05/14 03:59:11;;;;;;;38.17;8.82;;;11.10;99.90;;;;;;5070286;28;20090;-58
2022/05/14 04:01:37;;;;;;;36.72;9.45;;;11.00;99.90;;;;;;5066267;28;20052;-59
2022/05/14 04:04:04;;;;;;;30.30;9.40;;;11.00;99.90;;;;;;5048462;28;20105;-60
2022/05/14 04:06:29;;;;;;;36.15;10.32;;;11.00;99.90;;;;;;5069821;28;20062;-58
2022/05/14 04:08:56;;;;;;;39.33;10.55;;;11.10;99.90;;;;;;5071242;28;20290;-58
2022/05/14 04:11:21;;;;;;;36.60;9.85;;;11.00;99.90;;;;;;5052369;28;20115;-58
2022/05/14 04:13:47;;;;;;;38.58;10.05;;;11.10;99.90;;;;;;5059404;28;20560;-58
2022/05/14 04:16:13;;;;;;;35.40;9.00;;;11.00;99.90;;;;;;5068499;28;20517;-58
2022/05/14 04:18:39;;;;;;;42.40;10.20;;;11.00;99.90;;;;;;5071791;28;20466;-59
2022/05/14 04:21:05;;;;;;;39.13;10.23;;;11.00;99.90;;;;;;5068869;28;20078;-58
2022/05/14 04:23:32;;;;;;;33.13;9.18;;;11.00;99.90;;;;;;5055522;28;20517;-58
2022/05/14 04:25:59;;;;;;;44.17;9.40;;;11.00;99.90;;;;;;5068870;28;20398;-59
2022/05/14 04:28:25;;;;;;;33.97;9.40;;;11.00;99.90;;;;;;5059674;28;20048;-59
2022/05/14 04:30:53;;;;;;;43.60;10.38;;;11.00;99.90;;;;;;5069272;28;20447;-58
2022/05/14 04:33:19;;;;;;;34.50;8.98;;;11.00;99.90;;;;;;5052042;28;20071;-59
2022/05/14 04:35:45;;;;;;;36.63;10.48;;;11.00;99.90;;;;;;5051627;28;20040;-59
2022/05/14 04:38:11;;;;;;;41.50;9.40;;;11.10;99.90;;;;;;5052067;28;20707;-59
2022/05/14 04:40:38;;;;;;;34.35;9.57;;;11.10;99.90;;;;;;5049772;28;20407;-61
2022/05/14 04:43:08;;;;;;;31.13;8.85;;;11.10;99.90;;;;;;5069902;28;20040;-59
2022/05/14 04:45:34;;;;;;;41.42;10.80;;;11.10;99.90;;;;;;5068803;28;20100;-58
2022/05/14 04:48:00;;;;;;;42.38;10.35;;;11.10;99.90;;;;;;5053629;28;20036;-58
2022/05/14 04:50:26;;;;;;;45.22;10.20;;;11.10;99.90;;;;;;5066551;28;20035;-60
2022/05/14 04:52:52;;;;;;;30.20;10.65;;;11.20;99.90;;;;;;5054732;28;20165;-59
2022/05/14 04:55:17;;;;;;;40.60;9.82;;;11.20;99.90;;;;;;5067540;28;20052;-58
2022/05/14 04:57:44;;;;;;;35.80;10.20;;;11.20;99.90;;;;;;5069202;28;20101;-59
2022/05/14 05:00:13;;;;;;;36.25;9.63;;;11.20;99.90;;;;;;5048774;28;20044;-58
2022/05/14 05:05:25;;;;;;;32.58;9.82;;;11.30;99.90;;;;;;5063524;28;20063;-58
2022/05/14 05:07:51;;;;;;;38.75;9.55;;;11.30;99.90;;;;;;5047146;28;20057;-58
2022/05/14 05:10:18;;;;;;;38.85;10.02;;;11.40;99.90;;;;;;5053942;28;20084;-59
2022/05/14 05:12:44;;;;;;;37.88;9.85;;;11.40;99.90;;;;;;5069349;28;20066;-58
2022/05/14 05:15:10;;;;;;;37.13;10.63;;;11.50;99.90;;;;;;5056293;28;20048;-57
2022/05/14 05:17:36;;;;;;;39.47;10.45;;;11.50;99.90;;;;;;5065304;28;20106;-58
2022/05/14 05:20:03;;;;;;;39.03;10.48;;;11.50;99.90;;;;;;5058029;28;20044;-59
2022/05/14 05:22:29;;;;;;;47.15;11.65;;;11.60;99.90;;;;;;5066684;28;20513;-59
2022/05/14 05:24:56;;;;;;;40.00;10.35;;;11.60;99.90;;;;;;5066025;28;20429;-58
2022/05/14 05:27:23;;;;;;;33.90;8.88;;;11.70;99.90;;;;;;5066077;28;20048;-58
2022/05/14 05:29:49;;;;;;;37.55;10.20;;;11.70;99.90;;;;;;5046393;28;20084;-58
2022/05/14 05:32:15;;;;;;;41.78;9.75;;;11.80;99.90;;;;;;5031268;28;20241;-59
2022/05/14 05:34:41;;;;;;;35.78;9.95;;;11.80;99.90;;;;;;5038194;28;20101;-59
2022/05/14 05:37:07;;;;;;;36.03;9.50;;;11.80;99.90;;;;;;5045027;28;20158;-59
2022/05/14 05:39:33;;;;;;;32.70;9.75;;;11.90;99.90;;;;;;5069013;28;20053;-59
2022/05/14 05:42:00;;;;;;;30.05;9.25;;;11.90;99.90;;;;;;5019109;28;20174;-58
2022/05/14 05:44:26;;;;;;;31.92;9.70;;;11.90;99.90;;;;;;5065414;28;20406;-58
2022/05/14 05:46:52;;;;;;;35.80;9.98;;;11.90;99.90;;;;;;5050814;28;20123;-58
2022/05/14 05:49:18;;;;;;;33.10;9.82;;;12.00;99.90;;;;;;5051811;28;20044;-60
2022/05/14 05:51:44;;;;;;;29.67;9.95;;;12.00;99.90;;;;;;5066371;28;20126;-58
2022/05/14 05:56:57;;;;;;;28.25;8.27;;;12.10;99.90;;;;;;5069665;28;20067;-59
2022/05/14 05:59:25;;;;;;;31.58;8.95;;;12.20;99.90;;;;;;5068970;28;20132;-58
2022/05/14 06:01:52;;;;;;;35.53;9.52;;;12.30;99.90;;;;;;5051561;28;20060;-58
2022/05/14 06:04:19;;;;;;;45.28;9.82;;;12.40;99.90;;;;;;5063717;28;20105;-58
2022/05/14 06:06:45;;;;;;;30.02;8.10;;;12.50;99.90;;;;;;5027552;28;20043;-58
2022/05/14 06:09:15;;;;;;;35.10;8.52;;;12.60;99.90;;;;;;5050517;28;20098;-59
2022/05/14 06:11:42;;;;;;;29.65;8.48;;;12.70;99.90;;;;;;5071502;28;20528;-58
2022/05/14 06:14:08;;;;;;;44.03;8.68;;;12.80;99.90;;;;;;5065228;28;20320;-58
2022/05/14 06:16:34;;;;;;;25.52;7.28;;;12.80;99.90;;;;;;5068430;28;20581;-59
2022/05/14 06:19:00;;;;;;;31.40;8.15;;;12.90;99.90;;;;;;5069450;28;20520;-59
2022/05/14 06:21:27;;;;;;;29.38;7.45;;;12.90;99.90;;;;;;5075402;28;20523;-59
2022/05/14 06:23:54;;;;;;;32.00;7.88;;;13.00;99.90;;;;;;5052072;28;20075;-58
2022/05/14 06:26:20;;;;;;;33.03;9.20;;;13.00;99.90;;;;;;5053110;28;20562;-58
2022/05/14 06:28:46;;;;;;;27.58;8.70;;;13.10;99.90;;;;;;5073757;28;20044;-58
2022/05/14 06:31:12;;;;;;;29.92;7.53;;;13.20;99.90;;;;;;5068019;28;20610;-58
2022/05/14 06:33:38;;;;;;;30.00;6.20;;;13.30;99.90;;;;;;5049918;28;20119;-58
2022/05/14 06:36:04;;;;;;;32.10;7.00;;;13.40;99.90;;;;;;5060839;28;20076;-57
2022/05/14 06:38:30;;;;;;;32.65;7.82;;;13.50;99.90;;;;;;5054616;28;20122;-58
2022/05/14 06:40:56;;;;;;;22.38;5.80;;;13.50;99.90;;;;;;5049969;28;20045;-59
2022/05/14 06:43:22;;;;;;;32.45;6.97;;;13.60;99.90;;;;;;5050742;28;20477;-59
2022/05/14 06:45:47;;;;;;;22.50;5.78;;;13.70;99.90;;;;;;5052353;28;20115;-57
2022/05/14 06:48:13;;;;;;;25.52;6.05;;;13.70;99.90;;;;;;5048059;28;20048;-57
2022/05/14 06:50:48;;;;;;;26.88;5.97;;;13.80;99.90;;;;;;5052245;28;20032;-58
2022/05/14 06:53:17;;;;;;;21.45;5.32;;;13.90;99.90;;;;;;5052204;28;20067;-59
2022/05/14 06:55:44;;;;;;;26.60;5.57;;;14.00;99.90;;;;;;5052504;28;20041;-58
2022/05/14 06:58:15;;;;;;;20.58;5.47;;;14.00;99.90;;;;;;5050906;28;20111;-58
2022/05/14 07:00:41;;;;;;;27.60;5.80;;;14.10;99.90;;;;;;5052299;28;20045;-58
2022/05/14 07:08:38;;;;;;;23.17;5.07;;;14.50;99.90;;;;;;5052555;28;20526;-57
2022/05/14 07:11:04;;;;;;;23.02;5.65;;;14.50;99.90;;;;;;5043591;28;20128;-57
2022/05/14 07:13:30;;;;;;;23.75;5.25;;;14.60;99.90;;;;;;5053132;28;20041;-58
2022/05/14 07:15:56;;;;;;;23.75;5.15;;;14.70;99.90;;;;;;5053064;28;20051;-57
2022/05/14 07:18:21;;;;;;;19.48;4.78;;;14.80;99.90;;;;;;5051663;28;20045;-57
2022/05/14 07:20:47;;;;;;;23.10;5.30;;;14.90;99.90;;;;;;5040614;28;20101;-57
2022/05/14 07:23:13;;;;;;;21.33;4.65;;;15.00;99.90;;;;;;5050257;28;20111;-58
2022/05/14 07:25:39;;;;;;;19.75;5.00;;;15.10;99.90;;;;;;5053800;28;20040;-58
2022/05/14 07:28:08;;;;;;;19.63;4.13;;;15.20;99.90;;;;;;5052842;28;20510;-58
2022/05/14 07:30:35;;;;;;;21.20;4.50;;;15.20;99.90;;;;;;5048455;28;20033;-59
2022/05/14 07:33:01;;;;;;;22.50;5.00;;;15.30;99.90;;;;;;5060747;28;20056;-58
2022/05/14 07:35:27;;;;;;;16.58;3.92;;;15.30;99.90;;;;;;5058685;28;20054;-57
2022/05/14 07:37:57;;;;;;;15.75;4.93;;;15.40;99.90;;;;;;5054736;28;20155;-57
2022/05/14 07:40:27;;;;;;;17.17;4.88;;;15.50;99.90;;;;;;5070839;28;20328;-58
2022/05/14 07:43:17;;;;;;;25.13;5.32;;;15.60;99.90;;;;;;5072440;28;20115;-58
2022/05/14 07:45:53;;;;;;;26.20;4.72;;;15.70;99.90;;;;;;5071313;28;20094;-57
2022/05/14 07:48:31;;;;;;;20.05;4.88;;;15.80;99.90;;;;;;5071861;28;20397;-59
2022/05/14 07:50:59;;;;;;;23.85;5.63;;;15.90;99.90;;;;;;5048593;28;20397;-58
2022/05/14 07:53:30;;;;;;;23.38;8.90;;;16.00;99.90;;;;;;5069968;28;20402;-57
2022/05/14 07:56:00;;;;;;;19.30;5.20;;;16.10;99.90;;;;;;5070632;28;20046;-59
2022/05/14 07:58:26;;;;;;;17.38;4.82;;;16.10;99.90;;;;;;5069875;28;20050;-57
2022/05/14 08:00:53;;;;;;;18.15;4.68;;;16.20;99.90;;;;;;5072757;28;20072;-58
2022/05/14 08:03:22;;;;;;;18.92;5.32;;;16.20;99.90;;;;;;5051983;28;20040;-58
2022/05/14 08:05:48;;;;;;;21.70;5.70;;;16.20;99.90;;;;;;5068119;28;20032;-59
2022/05/14 08:08:15;;;;;;;18.75;5.10;;;16.40;99.90;;;;;;5056167;28;20052;-58
2022/05/14 08:10:40;;;;;;;16.05;4.97;;;16.50;99.90;;;;;;5056646;28;20037;-59
2022/05/14 08:13:06;;;;;;;17.98;5.20;;;16.70;99.90;;;;;;5070293;28;20055;-58
2022/05/14 08:15:32;;;;;;;20.75;4.75;;;16.80;99.90;;;;;;5072079;28;20417;-60
2022/05/14 08:17:58;;;;;;;15.00;4.55;;;16.90;99.90;;;;;;5045744;28;20429;-57
2022/05/14 08:20:24;;;;;;;23.83;4.93;;;17.00;99.90;;;;;;5058636;28;21039;-58
2022/05/14 08:25:35;;;;;;;20.63;6.03;;;17.20;99.90;;;;;;5068601;28;20368;-58
2022/05/14 08:28:01;;;;;;;18.85;4.90;;;17.30;99.90;;;;;;5061652;28;20040;-57
2022/05/14 08:30:31;;;;;;;20.58;4.90;;;17.40;99.90;;;;;;5038191;28;20110;-58
2022/05/14 08:32:57;;;;;;;17.85;4.93;;;17.60;99.90;;;;;;5069952;28;20066;-59
2022/05/14 08:35:24;;;;;;;17.33;4.68;;;17.70;99.70;;;;;;5061817;28;20131;-58
2022/05/14 08:37:51;;;;;;;23.08;5.18;;;17.80;99.60;;;;;;5072120;28;20082;-58
2022/05/14 08:40:33;;;;;;;17.30;5.13;;;18.00;99.20;;;;;;5072442;28;20067;-59
2022/05/14 08:43:01;;;;;;;22.58;4.93;;;18.00;98.80;;;;;;5071627;28;20083;-58
2022/05/14 08:45:28;;;;;;;16.77;4.20;;;18.10;98.70;;;;;;5069201;28;20047;-58
2022/05/14 08:48:10;;;;;;;19.75;4.88;;;18.10;98.20;;;;;;5067717;28;20553;-59
2022/05/14 08:50:38;;;;;;;19.25;4.82;;;18.10;98.00;;;;;;5062798;28;20032;-58
2022/05/14 08:53:08;;;;;;;22.65;4.80;;;18.00;97.70;;;;;;5070637;28;20058;-58
2022/05/14 08:55:43;;;;;;;20.42;5.05;;;18.00;97.20;;;;;;5071442;28;20109;-59
2022/05/14 08:58:34;;;;;;;19.65;4.93;;;17.90;97.30;;;;;;5052181;28;20075;-58
2022/05/14 09:01:02;;;;;;;25.17;4.60;;;17.90;96.50;;;;;;5069878;28;20055;-58
2022/05/14 09:03:27;;;;;;;21.00;5.13;;;18.00;96.20;;;;;;5069720;28;20047;-58
2022/05/14 09:05:56;;;;;;;21.58;4.70;;;18.20;95.90;;;;;;5052539;28;20051;-59
2022/05/14 09:08:23;;;;;;;24.48;4.93;;;18.30;95.00;;;;;;5070536;28;20035;-59
2022/05/14 09:11:17;;;;;;;21.77;5.70;;;18.30;94.70;;;;;;5070787;28;20056;-59
2022/05/14 09:13:47;;;;;;;20.48;5.07;;;18.40;94.50;;;;;;5067136;28;20124;-58
2022/05/14 09:16:29;;;;;;;22.63;4.80;;;18.40;94.10;;;;;;5058475;28;20394;-59
2022/05/14 09:18:55;;;;;;;19.00;4.88;;;18.40;93.90;;;;;;5053464;28;20048;-58
2022/05/14 09:21:31;;;;;;;24.83;5.28;;;18.50;94.60;;;;;;5060634;28;20135;-58
2022/05/14 09:23:59;;;;;;;21.85;5.40;;;18.70;94.00;;;;;;5065023;28;20044;-58
2022/05/14 09:26:39;;;;;;;22.63;4.45;;;18.80;93.40;;;;;;5060674;28;20148;-58
2022/05/14 09:29:31;;;;;;;21.48;4.78;;;18.70;92.80;;;;;;5071503;28;20110;-57
2022/05/14 09:32:06;;;;;;;15.77;4.32;;;18.80;93.50;;;;;;5064938;28;20135;-57
2022/05/14 09:34:34;;;;;;;19.38;4.90;;;18.90;92.90;;;;;;5033499;28;20052;-59
2022/05/14 09:37:13;;;;;;;21.45;4.85;;;18.80;92.30;;;;;;5062192;28;20433;-57
2022/05/14 09:39:39;;;;;;;20.90;4.85;;;18.80;92.10;;;;;;5063145;28;20044;-59
2022/05/14 09:42:06;;;;;;;21.75;5.47;;;18.70;91.70;;;;;;4990429;28;21290;-57
2022/05/14 09:44:47;;;;;;;20.17;4.93;;;18.70;91.80;;;;;;5043814;28;20498;-59
2022/05/14 09:47:16;;;;;;;19.58;4.78;;;18.50;91.40;;;;;;5052126;28;20044;-59
2022/05/14 09:50:04;;;;;;;23.17;5.20;;;18.50;91.70;;;;;;5050350;28;20040;-59
2022/05/14 09:52:34;;;;;;;22.23;4.80;;;18.60;92.20;;;;;;5037829;28;20060;-59
2022/05/14 09:55:03;;;;;;;20.55;5.28;;;18.90;92.50;;;;;;5054723;28;20261;-58
2022/05/14 09:57:35;;;;;;;21.40;5.05;;;19.00;91.60;;;;;;5053129;28;20391;-58
2022/05/14 10:00:06;;;;;;;20.15;4.68;;;19.20;91.60;;;;;;5041918;28;20147;-59
2022/05/14 10:02:38;;;;;;;19.80;5.72;;;19.40;91.20;;;;;;5057701;28;20423;-59
2022/05/14 10:05:32;;;;;;;23.13;5.15;;;19.70;91.20;;;;;;5058344;28;20047;-59
2022/05/14 10:08:21;;;;;;;19.30;5.03;;;19.90;90.70;;;;;;5049228;28;20415;-58
2022/05/14 10:10:54;;;;;;;24.95;5.18;;;19.90;89.10;;;;;;5053340;28;20055;-57
2022/05/14 10:13:36;;;;;;;18.17;4.68;;;20.00;89.30;;;;;;5061714;28;20040;-58
2022/05/14 10:16:31;;;;;;;23.75;5.28;;;20.10;88.60;;;;;;5057240;28;20222;-60
2022/05/14 10:19:21;;;;;;;21.88;5.50;;;20.20;87.10;;;;;;5035778;28;20052;-59
2022/05/14 10:22:12;;;;;;;22.95;5.25;;;20.50;87.50;;;;;;5035855;28;20050;-58
2022/05/14 10:28:12;;;;;;;22.88;5.32;;;20.80;83.80;;;;;;4975596;28;20100;-58
2022/05/14 10:30:47;;;;;;;19.42;4.95;;;20.90;80.00;;;;;;5016403;28;20160;-59
2022/05/14 10:33:19;;;;;;;23.08;4.97;;;20.90;79.50;;;;;;5061056;28;20052;-60
2022/05/14 10:35:45;;;;;;;19.63;4.93;;;21.00;79.40;;;;;;5057848;28;20055;-60
2022/05/14 10:38:21;;;;;;;22.08;5.05;;;21.10;78.30;;;;;;5062045;28;20040;-59
2022/05/14 10:40:53;;;;;;;19.48;4.90;;;21.20;76.40;;;;;;5053022;28;20058;-59
2022/05/14 10:43:33;;;;;;;17.38;4.57;;;21.30;76.90;;;;;;5059875;28;20128;-58
2022/05/14 10:46:02;;;;;;;19.85;5.20;;;21.40;77.50;;;;;;5057882;28;20501;-58
2022/05/14 10:48:42;;;;;;;20.15;4.78;;;21.50;76.20;;;;;;5059224;28;20166;-58
2022/05/14 10:51:11;;;;;;;16.25;4.20;;;21.40;75.20;;;;;;5060660;28;20107;-60
2022/05/14 10:53:42;;;;;;;25.35;5.43;;;21.50;75.10;;;;;;5064184;28;20141;-58
2022/05/14 10:56:35;;;;;;;23.92;5.10;;;21.70;73.70;;;;;;5062647;28;20218;-59
2022/05/14 10:59:05;;;;;;;21.48;4.72;;;21.90;73.10;;;;;;5058047;28;20289;-58
2022/05/14 11:01:40;;;;;;;18.45;5.63;;;21.80;72.50;;;;;;5046479;28;21260;-60
2022/05/14 11:04:21;;;;;;;16.52;4.43;;;21.70;73.00;;;;;;5055065;28;20040;-58
2022/05/14 11:07:01;;;;;;;21.45;5.45;;;21.70;73.00;;;;;;5055430;28;20517;-59
2022/05/14 11:09:45;;;;;;;17.65;5.00;;;21.70;72.70;;;;;;5040175;28;20161;-59
2022/05/14 11:12:20;;;;;;;24.30;5.35;;;21.80;71.00;;;;;;5038234;28;20055;-60
2022/05/14 11:14:51;;;;;;;20.38;4.65;;;21.90;71.10;;;;;;5054017;28;20057;-60
2022/05/14 11:17:28;;;;;;;22.55;4.40;;;22.10;69.90;;;;;;5048417;28;20090;-59
2022/05/14 11:20:03;;;;;;;23.00;5.07;;;22.30;68.90;;;;;;5062258;28;20054;-59
2022/05/14 11:22:42;;;;;;;22.55;5.15;;;22.50;68.00;;;;;;5061447;28;20568;-60
2022/05/14 11:25:11;;;;;;;31.42;5.60;;;22.70;67.50;;;;;;5061406;28;20101;-60
2022/05/14 11:27:39;;;;;;;20.05;5.13;;;22.90;67.40;;;;;;5024492;28;20123;-60
2022/05/14 11:30:15;;;;;;;21.58;4.75;;;23.10;66.60;;;;;;5067307;28;20474;-60
2022/05/14 11:32:52;;;;;;;24.33;5.15;;;23.30;65.30;;;;;;5062293;28;20898;-59
2022/05/14 11:35:20;;;;;;;38.17;7.25;;;23.30;66.20;;;;;;5064845;28;20052;-61
2022/05/14 11:37:51;;;;;;;26.83;5.70;;;23.50;66.00;;;;;;5061079;28;20075;-61
2022/05/14 11:40:20;;;;;;;19.45;4.90;;;23.70;63.80;;;;;;5061774;28;20048;-58
2022/05/14 11:42:48;;;;;;;18.95;5.03;;;23.60;63.10;;;;;;5063650;28;20049;-57
2022/05/14 11:45:24;;;;;;;25.23;6.38;;;23.40;62.20;;;;;;5046632;28;20048;-61
2022/05/14 11:47:55;;;;;;;21.17;4.80;;;23.00;61.70;;;;;;5043892;28;20044;-60
2022/05/14 11:50:31;;;;;;;19.92;5.22;;;22.70;62.50;;;;;;5058680;28;20044;-62
2022/05/14 11:53:15;;;;;;;21.13;4.72;;;22.70;64.30;;;;;;5061795;28;20059;-59
2022/05/14 11:56:09;;;;;;;20.95;5.00;;;22.50;63.30;;;;;;5063639;28;20447;-60
2022/05/14 11:58:42;;;;;;;20.30;5.13;;;22.30;63.70;;;;;;5060631;28;20979;-60
2022/05/14 12:01:14;;;;;;;19.52;5.15;;;22.60;64.60;;;;;;5048745;28;20062;-59
2022/05/14 12:03:44;;;;;;;18.30;4.93;;;22.90;64.50;;;;;;5059222;28;20044;-60
2022/05/14 12:06:39;;;;;;;23.90;5.07;;;23.10;62.70;;;;;;5072907;28;20142;-59
2022/05/14 12:09:19;;;;;;;22.92;5.30;;;23.40;63.00;;;;;;5053900;28;20127;-61
2022/05/14 12:12:19;;;;;;;19.70;5.07;;;23.60;62.80;;;;;;5053298;28;20071;-59
2022/05/14 12:14:45;;;;;;;22.15;4.95;;;23.60;62.50;;;;;;5037198;28;20055;-61
2022/05/14 12:17:18;;;;;;;15.98;4.72;;;23.90;62.20;;;;;;5051921;28;20052;-61
2022/05/14 12:19:51;;;;;;;21.65;4.95;;;24.10;60.90;;;;;;5071747;28;20670;-60
2022/05/14 12:22:25;;;;;;;21.25;5.57;;;24.10;59.40;;;;;;5051207;28;20044;-59
2022/05/14 12:25:07;;;;;;;22.48;4.88;;;23.90;58.90;;;;;;5069188;28;20045;-59
2022/05/14 12:27:44;;;;;;;20.50;4.93;;;23.80;60.20;;;;;;5069893;28;20491;-61
2022/05/14 12:30:12;;;;;;;22.92;5.25;;;23.90;59.90;;;;;;5070870;28;20513;-58
2022/05/14 12:35:33;;;;;;;19.00;5.20;;;24.30;59.50;;;;;;5070882;28;20048;-59
2022/05/14 12:38:02;;;;;;;15.77;4.93;;;24.50;58.70;;;;;;5052288;28;20590;-61
2022/05/14 12:40:35;;;;;;;27.13;5.22;;;24.60;57.20;;;;;;5070388;28;20071;-61
2022/05/14 12:43:04;;;;;;;26.48;5.00;;;24.70;57.60;;;;;;5068380;28;20040;-59
2022/05/14 12:45:38;;;;;;;22.60;5.20;;;24.80;57.40;;;;;;5068059;28;20479;-60
2022/05/14 12:48:05;;;;;;;17.33;4.78;;;24.80;56.90;;;;;;5068486;28;20494;-60
2022/05/14 12:50:33;;;;;;;20.50;4.93;;;24.60;57.10;;;;;;5071934;28;20056;-60
2022/05/14 12:53:08;;;;;;;20.88;5.30;;;24.60;57.60;;;;;;5071062;28;20071;-60
2022/05/14 12:55:41;;;;;;;20.73;5.28;;;24.40;57.00;;;;;;5054404;28;20044;-61
2022/05/14 12:58:07;;;;;;;22.02;5.10;;;24.40;57.70;;;;;;5068393;28;20047;-61
2022/05/14 13:00:35;;;;;;;21.05;4.47;;;24.60;57.10;;;;;;5055475;28;20084;-61
2022/05/14 13:03:16;;;;;;;22.20;5.75;;;24.90;56.70;;;;;;5053722;28;20048;-62
2022/05/14 13:05:49;;;;;;;38.60;6.32;;;25.10;56.60;;;;;;5068575;28;20043;-60
2022/05/14 13:08:18;;;;;;;20.48;4.55;;;25.40;56.00;;;;;;5068780;28;20047;-60
2022/05/14 13:10:54;;;;;;;17.90;4.57;;;25.50;55.60;;;;;;5050184;28;20048;-62
2022/05/14 13:13:34;;;;;;;20.48;4.97;;;25.80;55.40;;;;;;5048247;28;20041;-61
2022/05/14 13:16:00;;;;;;;22.20;5.15;;;25.70;54.70;;;;;;5069441;28;20043;-60